Time;durP1;ratioP1;P1;durP2;ratioP2;P2;SDS_P1;SDS_P2;PMS_P1;PMS_P2;Temp;Humidity;BMP_temperature;BMP_pressure;BME280_temperature;BME280_humidity;BME280_pressure;Samples;Min_cycle;Max_cycle;Signal;HPM_P1;HPM_P2
2022/01/31 00:01:51;;;;;;;12.93;8.75;;;;;;;0.73;72.41;98721.03;4972959;28;20042;-79
2022/01/31 00:04:17;;;;;;;15.93;9.07;;;;;;;0.73;72.31;98721.03;4957005;28;20174;-79
2022/01/31 00:06:47;;;;;;;15.70;8.85;;;;;;;0.76;72.38;98717.41;4974084;28;20046;-80
2022/01/31 00:09:16;;;;;;;13.48;8.43;;;;;;;0.77;72.27;98720.91;4973611;28;20042;-80
2022/01/31 00:11:45;;;;;;;13.48;8.02;;;;;;;0.68;72.58;98707.28;4973006;28;20046;-80
2022/01/31 00:14:28;;;;;;;10.00;7.45;;;;;;;0.80;72.79;98720.75;4975205;28;20071;-78
2022/01/31 00:16:54;;;;;;;11.27;6.72;;;;;;;0.85;72.66;98721.34;4947405;28;20468;-80
2022/01/31 00:19:20;;;;;;;10.27;6.90;;;;;;;0.85;72.14;98724.00;4976788;28;20086;-79
2022/01/31 00:21:46;;;;;;;8.25;5.75;;;;;;;0.83;72.95;98728.47;4960554;28;20129;-80
2022/01/31 00:24:12;;;;;;;7.97;5.65;;;;;;;0.88;72.47;98722.06;4976658;28;20503;-78
2022/01/31 00:26:38;;;;;;;7.93;5.57;;;;;;;0.86;72.11;98717.78;4961291;28;20050;-79
2022/01/31 00:29:04;;;;;;;7.00;5.30;;;;;;;0.85;72.35;98718.72;4960748;28;20069;-80
2022/01/31 00:31:31;;;;;;;8.13;5.45;;;;;;;0.86;72.72;98721.25;4944761;28;20047;-79
2022/01/31 00:33:57;;;;;;;6.00;4.85;;;;;;;0.83;72.62;98726.72;4961230;28;20058;-79
2022/01/31 00:36:24;;;;;;;6.55;4.80;;;;;;;0.79;72.75;98724.28;4961828;28;20047;-80
2022/01/31 00:38:50;;;;;;;5.72;4.70;;;;;;;0.70;72.72;98721.19;4961487;28;20150;-78
2022/01/31 00:41:16;;;;;;;6.45;4.80;;;;;;;0.73;72.66;98728.94;4944542;28;20527;-80
2022/01/31 00:43:44;;;;;;;7.20;5.00;;;;;;;0.77;72.74;98734.06;4960466;28;20070;-78
2022/01/31 00:46:12;;;;;;;6.15;4.93;;;;;;;0.75;72.75;98738.53;4929408;28;20050;-78
2022/01/31 00:48:45;;;;;;;5.57;4.53;;;;;;;0.76;72.74;98729.72;4960111;28;20054;-78
2022/01/31 00:51:11;;;;;;;5.57;4.50;;;;;;;0.75;72.66;98725.38;4961055;28;20097;-78
2022/01/31 00:53:37;;;;;;;6.22;4.82;;;;;;;0.77;72.77;98731.41;4960620;28;20047;-79
2022/01/31 00:56:04;;;;;;;6.88;4.63;;;;;;;0.75;72.52;98733.25;4944212;28;20529;-79
2022/01/31 00:58:30;;;;;;;5.43;4.60;;;;;;;0.65;73.48;98743.41;4960433;28;20452;-79
2022/01/31 01:00:56;;;;;;;7.43;4.88;;;;;;;0.59;73.04;98749.81;4944183;28;20046;-80
2022/01/31 01:03:22;;;;;;;6.00;5.05;;;;;;;0.61;73.21;98741.84;4959861;28;20042;-79
2022/01/31 01:05:48;;;;;;;7.53;5.22;;;;;;;0.56;72.94;98731.53;4976374;28;20070;-79
2022/01/31 01:08:14;;;;;;;5.68;4.57;;;;;;;0.53;73.15;98739.59;4960306;28;20046;-77
2022/01/31 01:10:41;;;;;;;8.02;5.57;;;;;;;0.50;73.53;98747.63;4977298;28;20141;-79
2022/01/31 01:13:07;;;;;;;6.70;5.05;;;;;;;0.50;73.27;98752.03;4960364;28;20054;-78
2022/01/31 01:15:33;;;;;;;7.22;4.70;;;;;;;0.38;73.20;98742.97;4947839;28;20047;-79
2022/01/31 01:17:59;;;;;;;6.13;4.57;;;;;;;0.44;73.57;98751.41;4945772;28;20043;-79
2022/01/31 01:20:26;;;;;;;7.55;5.28;;;;;;;0.53;73.28;98755.38;4959881;28;20043;-78
2022/01/31 01:22:52;;;;;;;5.72;4.53;;;;;;;0.57;72.95;98754.31;4943814;28;20460;-79
2022/01/31 01:25:18;;;;;;;6.70;4.07;;;;;;;0.54;72.60;98754.44;4976984;28;20406;-78
2022/01/31 01:27:49;;;;;;;5.95;4.75;;;;;;;0.41;73.46;98751.53;4975745;28;20474;-79
2022/01/31 01:30:16;;;;;;;5.22;4.28;;;;;;;0.38;73.15;98746.44;4975373;28;20046;-78
2022/01/31 01:35:33;;;;;;;5.75;4.47;;;;;;;0.42;73.64;98748.00;4959325;28;20039;-79
2022/01/31 01:38:05;;;;;;;5.40;4.35;;;;;;;0.38;73.78;98751.72;4913416;28;20038;-78
2022/01/31 01:40:36;;;;;;;5.20;4.30;;;;;;;0.40;73.94;98749.00;4960125;28;20069;-78
2022/01/31 01:43:02;;;;;;;5.07;4.22;;;;;;;0.55;73.53;98747.41;4943791;28;20395;-78
2022/01/31 01:45:29;;;;;;;5.85;4.35;;;;;;;0.47;72.92;98748.63;4959215;28;20050;-79
2022/01/31 01:47:55;;;;;;;5.18;4.15;;;;;;;0.51;73.17;98754.59;4975454;28;20121;-78
2022/01/31 01:50:21;;;;;;;5.10;4.20;;;;;;;0.55;72.91;98743.00;4959228;28;20124;-78
2022/01/31 01:52:47;;;;;;;5.10;3.97;;;;;;;0.58;72.51;98732.31;4959196;28;20047;-79
2022/01/31 01:55:13;;;;;;;4.93;3.97;;;;;;;0.66;72.72;98745.09;4943194;28;20039;-79
2022/01/31 01:57:40;;;;;;;7.68;4.68;;;;;;;0.72;72.41;98755.31;4927192;28;20502;-79
2022/01/31 02:00:08;;;;;;;9.63;5.78;;;;;;;0.64;72.29;98753.06;4927647;28;20046;-79
2022/01/31 02:02:34;;;;;;;9.27;5.85;;;;;;;0.59;72.73;98744.53;4975028;28;20110;-81
2022/01/31 02:05:03;;;;;;;10.20;6.32;;;;;;;0.62;72.88;98749.66;4959242;28;20099;-79
2022/01/31 02:07:36;;;;;;;11.50;6.90;;;;;;;0.61;72.83;98755.84;4960904;28;20450;-79
2022/01/31 02:10:06;;;;;;;11.25;7.15;;;;;;;0.69;72.98;98760.72;4942927;28;20043;-79
2022/01/31 02:12:40;;;;;;;17.85;8.10;;;;;;;0.66;72.91;98761.72;4962029;28;20577;-79
2022/01/31 02:15:09;;;;;;;15.40;8.73;;;;;;;0.73;72.79;98762.28;4945941;28;20038;-79
2022/01/31 02:18:07;;;;;;;19.77;9.57;;;;;;;0.72;72.74;98755.31;4934632;28;20526;-79
2022/01/31 02:20:40;;;;;;;18.05;10.75;;;;;;;0.67;73.03;98766.06;4944689;28;20479;-80
2022/01/31 02:23:09;;;;;;;15.07;10.05;;;;;;;0.73;73.17;98763.13;4960445;28;20069;-79
2022/01/31 02:26:03;;;;;;;16.42;9.07;;;;;;;0.59;73.60;98756.84;4955988;28;20051;-81
2022/01/31 02:29:08;;;;;;;12.02;6.35;;;;;;;0.52;73.40;98763.31;4926539;29;20043;-80
2022/01/31 02:31:35;;;;;;;9.45;6.57;;;;;;;0.47;74.36;98760.91;4939834;29;20055;-79
2022/01/31 02:34:01;;;;;;;8.18;4.97;;;;;;;0.47;74.43;98768.81;4923278;29;20043;-78
2022/01/31 02:36:27;;;;;;;6.72;5.57;;;;;;;0.51;74.26;98770.38;4938827;28;20052;-79
2022/01/31 02:38:53;;;;;;;10.23;6.32;;;;;;;0.56;74.54;98776.25;4921605;28;20499;-79
2022/01/31 02:41:20;;;;;;;9.60;6.35;;;;;;;0.54;74.27;98762.34;4935091;28;20045;-81
2022/01/31 02:43:49;;;;;;;11.68;6.82;;;;;;;0.51;74.48;98767.72;4957918;28;20043;-79
2022/01/31 02:46:21;;;;;;;8.55;5.40;;;;;;;0.46;74.38;98769.75;4933108;28;20457;-80
2022/01/31 02:48:52;;;;;;;9.73;6.22;;;;;;;0.41;74.49;98776.97;4933989;29;20039;-79
2022/01/31 02:51:24;;;;;;;9.45;5.93;;;;;;;0.38;74.81;98772.75;4950653;29;20119;-79
2022/01/31 02:53:51;;;;;;;9.65;5.68;;;;;;;0.42;74.29;98773.44;4949881;28;20426;-79
2022/01/31 02:56:18;;;;;;;8.20;5.45;;;;;;;0.46;74.50;98769.75;4943006;28;20043;-80
2022/01/31 02:58:44;;;;;;;7.78;4.70;;;;;;;0.48;74.10;98773.13;4974263;28;20201;-80
2022/01/31 03:01:11;;;;;;;6.18;4.47;;;;;;;0.47;74.36;98771.44;4926523;28;20445;-81
2022/01/31 03:03:39;;;;;;;5.07;4.22;;;;;;;0.48;74.44;98768.72;4974227;28;20051;-80
2022/01/31 03:06:05;;;;;;;5.70;4.28;;;;;;;0.45;74.29;98771.53;4941761;28;20050;-79
2022/01/31 03:08:32;;;;;;;4.93;4.05;;;;;;;0.54;74.42;98788.63;4942350;28;20050;-79
2022/01/31 03:11:11;;;;;;;4.75;4.05;;;;;;;0.53;74.14;98784.31;4957911;28;20058;-78
2022/01/31 03:13:48;;;;;;;5.10;3.63;;;;;;;0.48;74.54;98776.59;4955017;28;20130;-80
2022/01/31 03:16:17;;;;;;;3.90;3.50;;;;;;;0.45;74.54;98776.78;4979964;28;20031;-80
2022/01/31 03:19:02;;;;;;;5.22;4.20;;;;;;;0.51;74.42;98782.66;4946314;28;20050;-81
2022/01/31 03:21:28;;;;;;;5.60;4.55;;;;;;;0.51;74.26;98775.63;4918206;28;20047;-81
2022/01/31 03:23:54;;;;;;;4.32;3.65;;;;;;;0.47;74.63;98779.31;4957581;28;20059;-79
2022/01/31 03:26:20;;;;;;;4.75;3.80;;;;;;;0.47;74.45;98781.97;4973612;28;20043;-78
2022/01/31 03:28:49;;;;;;;5.53;4.25;;;;;;;0.47;74.28;98787.22;4941251;28;20071;-82
2022/01/31 03:31:18;;;;;;;5.25;4.30;;;;;;;0.47;74.64;98777.53;4957361;28;20042;-81
2022/01/31 03:33:46;;;;;;;7.75;4.47;;;;;;;0.67;76.23;98797.63;4943020;28;20050;-80
2022/01/31 03:36:12;;;;;;;5.78;4.60;;;;;;;0.77;75.08;98794.56;4958686;28;20051;-81
2022/01/31 03:38:41;;;;;;;5.45;4.40;;;;;;;0.71;73.89;98796.56;4958068;28;20101;-79
2022/01/31 03:41:10;;;;;;;5.22;4.63;;;;;;;0.88;75.71;98798.34;4946499;28;20073;-85
2022/01/31 03:43:36;;;;;;;5.63;4.60;;;;;;;0.84;74.31;98807.34;4958600;28;20054;-76
2022/01/31 03:46:02;;;;;;;5.60;4.40;;;;;;;0.83;73.66;98813.53;4940780;28;20042;-79
2022/01/31 03:48:29;;;;;;;10.85;4.95;;;;;;;0.78;73.53;98823.41;4956377;28;20145;-80
2022/01/31 03:50:57;;;;;;;6.72;4.72;;;;;;;0.76;73.78;98819.16;4942566;28;20047;-86
2022/01/31 03:53:26;;;;;;;6.30;4.22;;;;;;;0.61;74.02;98818.97;4926451;28;20041;-76
2022/01/31 03:55:52;;;;;;;6.80;4.60;;;;;;;0.58;74.01;98821.75;4941682;28;20043;-81
2022/01/31 03:58:18;;;;;;;11.93;3.97;;;;;;;0.48;74.67;98820.47;4925569;28;20054;-77
2022/01/31 04:00:47;;;;;;;4.53;3.55;;;;;;;0.40;75.21;98822.59;4926392;28;20490;-80
2022/01/31 04:03:13;;;;;;;5.82;3.78;;;;;;;0.49;75.07;98822.19;4965324;28;20043;-80
2022/01/31 04:05:39;;;;;;;7.65;6.10;;;;;;;0.48;74.77;98825.72;4970300;28;20572;-80
2022/01/31 04:08:06;;;;;;;12.82;7.90;;;;;;;0.61;74.50;98823.38;4987478;28;20043;-79
2022/01/31 04:10:33;;;;;;;38.25;14.50;;;;;;;0.64;74.35;98826.72;4969626;28;20384;-81
2022/01/31 04:12:59;;;;;;;29.02;12.90;;;;;;;0.66;74.10;98829.25;4943722;28;20050;-82
2022/01/31 04:15:24;;;;;;;48.80;20.58;;;;;;;0.48;74.64;98831.84;4957887;28;20097;-81
2022/01/31 04:17:51;;;;;;;76.72;28.13;;;;;;;0.52;74.57;98832.53;4959693;28;20098;-79
2022/01/31 04:20:18;;;;;;;70.13;26.52;;;;;;;0.55;74.41;98834.19;4960693;28;20151;-82
2022/01/31 04:22:58;;;;;;;50.78;20.70;;;;;;;0.56;74.84;98834.09;4975136;28;20050;-81
2022/01/31 04:25:45;;;;;;;53.40;18.42;;;;;;;0.46;75.03;98838.97;4974870;28;20621;-80
2022/01/31 04:28:21;;;;;;;21.27;10.52;;;;;;;0.59;74.79;98849.75;4973482;28;20138;-81
2022/01/31 04:31:14;;;;;;;21.25;8.73;;;;;;;0.65;74.69;98851.25;4958149;28;20046;-80
2022/01/31 04:33:40;;;;;;;11.35;6.68;;;;;;;0.62;74.59;98849.59;4959899;28;20637;-78
2022/01/31 04:36:06;;;;;;;13.98;6.88;;;;;;;0.59;74.66;98855.00;4949565;28;20054;-79
2022/01/31 04:38:33;;;;;;;8.25;6.38;;;;;;;0.63;74.34;98845.19;4942663;28;20423;-82
2022/01/31 04:40:59;;;;;;;7.75;6.05;;;;;;;0.65;74.23;98852.09;4961294;28;20130;-81
2022/01/31 04:43:25;;;;;;;7.60;5.57;;;;;;;0.59;74.45;98854.16;4921437;29;20417;-81
2022/01/31 04:45:53;;;;;;;16.80;5.88;;;;;;;0.62;74.06;98860.13;4921767;29;20057;-79
2022/01/31 04:48:20;;;;;;;8.23;5.90;;;;;;;0.60;74.55;98863.75;4937415;29;20051;-78
2022/01/31 04:50:46;;;;;;;7.88;5.97;;;;;;;0.55;74.24;98863.97;4969327;28;20082;-79
2022/01/31 04:53:12;;;;;;;7.70;5.80;;;;;;;0.59;74.36;98865.53;4921862;29;20043;-80
2022/01/31 04:55:38;;;;;;;8.45;6.18;;;;;;;0.63;74.07;98882.00;4937442;29;20047;-80
2022/01/31 04:58:05;;;;;;;9.00;6.30;;;;;;;0.60;74.39;98880.41;4921483;29;20355;-81
2022/01/31 05:00:31;;;;;;;7.05;5.72;;;;;;;0.66;74.03;98885.34;4939412;29;20458;-79
2022/01/31 05:02:57;;;;;;;8.38;5.70;;;;;;;0.72;73.56;98882.44;4924483;29;20054;-79
2022/01/31 05:05:22;;;;;;;10.32;6.53;;;;;;;0.68;73.79;98875.63;4924707;29;20043;-79
2022/01/31 05:07:51;;;;;;;9.48;6.63;;;;;;;0.80;73.81;98881.22;4940771;29;20047;-82
2022/01/31 05:10:19;;;;;;;9.50;6.47;;;;;;;0.91;73.31;98881.56;4925971;29;20479;-80
2022/01/31 05:12:46;;;;;;;8.73;6.35;;;;;;;0.93;73.22;98879.69;4924988;29;20043;-81
2022/01/31 05:15:11;;;;;;;9.30;6.55;;;;;;;0.97;73.15;98884.72;4925041;29;20051;-81
2022/01/31 05:17:37;;;;;;;21.08;6.45;;;;;;;1.08;72.77;98892.13;4924665;29;20144;-79
2022/01/31 05:20:04;;;;;;;10.35;7.57;;;;;;;1.33;72.44;98890.94;4924695;29;20074;-80
2022/01/31 05:22:30;;;;;;;8.88;7.22;;;;;;;1.51;71.43;98897.91;4924969;29;20529;-79
2022/01/31 05:24:56;;;;;;;10.57;7.50;;;;;;;1.77;71.17;98887.81;4940108;29;20199;-80
2022/01/31 05:27:22;;;;;;;10.30;7.47;;;;;;;1.92;69.87;98892.31;4924617;29;20134;-80
2022/01/31 05:29:48;;;;;;;11.02;7.45;;;;;;;2.08;69.47;98902.91;4924638;29;20043;-81
2022/01/31 05:32:14;;;;;;;10.10;7.60;;;;;;;2.07;68.45;98902.06;4940170;29;20127;-80
2022/01/31 05:34:40;;;;;;;8.55;6.95;;;;;;;2.11;68.34;98908.88;4924451;29;20051;-80
2022/01/31 05:37:06;;;;;;;10.73;8.38;;;;;;;2.12;68.08;98915.00;4924377;29;20466;-80
2022/01/31 05:39:32;;;;;;;11.25;7.95;;;;;;;1.97;67.97;98906.09;4940297;29;20489;-80
2022/01/31 05:41:59;;;;;;;10.32;7.82;;;;;;;1.76;68.34;98907.19;4955765;28;20049;-80
2022/01/31 05:44:25;;;;;;;15.60;8.38;;;;;;;1.73;68.55;98908.22;4924389;29;20043;-82
2022/01/31 05:46:51;;;;;;;11.25;8.10;;;;;;;1.67;68.72;98906.72;4923980;29;20514;-79
2022/01/31 05:49:17;;;;;;;19.77;10.20;;;;;;;1.54;68.90;98913.53;4924208;29;20054;-79
2022/01/31 05:51:54;;;;;;;12.30;8.73;;;;;;;1.59;68.96;98906.28;4924332;29;20071;-80
2022/01/31 05:54:23;;;;;;;10.77;7.80;;;;;;;1.77;68.64;98914.16;4924145;29;20050;-80
2022/01/31 05:56:50;;;;;;;18.67;9.00;;;;;;;1.67;68.86;98906.72;4924070;29;20558;-81
2022/01/31 05:59:17;;;;;;;12.27;8.27;;;;;;;1.82;68.33;98912.16;4939857;29;20090;-80
2022/01/31 06:01:43;;;;;;;14.27;9.55;;;;;;;1.93;68.09;98913.31;4923916;29;20411;-80
2022/01/31 06:04:09;;;;;;;14.93;9.65;;;;;;;2.01;67.85;98920.81;4924094;29;20134;-81
2022/01/31 06:06:35;;;;;;;14.27;8.85;;;;;;;2.11;67.24;98929.13;4924252;29;20067;-80
2022/01/31 06:09:01;;;;;;;13.35;9.20;;;;;;;1.95;67.05;98915.84;4939552;29;20058;-79
2022/01/31 06:11:28;;;;;;;14.55;9.40;;;;;;;1.98;67.56;98934.16;4922892;29;20075;-80
2022/01/31 06:13:55;;;;;;;13.20;9.45;;;;;;;1.79;67.63;98925.47;4955558;28;20043;-82
2022/01/31 06:16:22;;;;;;;17.95;9.68;;;;;;;1.82;67.77;98941.16;4924590;29;20141;-80
2022/01/31 06:18:48;;;;;;;21.75;8.98;;;;;;;1.79;67.99;98938.66;4939510;29;20043;-81
2022/01/31 06:21:14;;;;;;;14.35;9.07;;;;;;;1.76;68.57;98938.81;4923549;29;20130;-81
2022/01/31 06:23:40;;;;;;;13.70;9.02;;;;;;;1.79;68.79;98947.41;4923503;29;20062;-83
2022/01/31 06:26:06;;;;;;;23.58;11.15;;;;;;;1.82;68.64;98952.53;4938938;29;20521;-79
2022/01/31 06:28:36;;;;;;;14.57;9.23;;;;;;;1.86;68.65;98956.72;4907906;28;20051;-80
2022/01/31 06:31:22;;;;;;;15.63;10.00;;;;;;;1.93;68.64;98954.63;4949587;29;20078;-79
2022/01/31 06:33:48;;;;;;;18.10;9.25;;;;;;;1.85;68.43;98947.13;4942819;28;20177;-82
2022/01/31 06:36:14;;;;;;;19.40;10.30;;;;;;;1.96;68.73;98962.38;4975510;28;20081;-81
2022/01/31 06:38:40;;;;;;;20.38;9.00;;;;;;;2.09;68.09;98968.72;4964136;28;20058;-81
2022/01/31 06:41:07;;;;;;;13.50;8.55;;;;;;;2.13;68.19;98959.72;4948720;28;20049;-84
2022/01/31 06:43:33;;;;;;;15.15;8.50;;;;;;;2.10;67.72;98969.56;4958507;28;20109;-81
2022/01/31 06:45:59;;;;;;;26.83;9.60;;;;;;;2.17;68.01;98976.22;4958565;28;20061;-81
2022/01/31 06:48:25;;;;;;;14.77;9.30;;;;;;;2.14;67.77;98972.00;4974441;28;20505;-82
2022/01/31 06:50:51;;;;;;;15.90;9.23;;;;;;;2.19;67.70;98969.09;4973239;28;20043;-82
2022/01/31 06:53:18;;;;;;;15.70;9.27;;;;;;;2.31;67.58;98979.00;4947053;29;20089;-80
2022/01/31 06:55:44;;;;;;;17.60;9.50;;;;;;;2.36;67.27;98965.56;4923494;29;20411;-81
2022/01/31 06:58:11;;;;;;;12.63;8.70;;;;;;;2.42;67.40;98974.03;4923494;29;20047;-80
2022/01/31 07:00:37;;;;;;;12.10;8.52;;;;;;;2.49;67.43;98973.72;4923243;29;20518;-83
2022/01/31 07:03:06;;;;;;;15.13;8.50;;;;;;;2.68;66.78;98977.94;4906909;29;20051;-80
2022/01/31 07:05:32;;;;;;;14.38;9.18;;;;;;;2.74;66.31;98982.00;4923067;29;20406;-77
2022/01/31 07:07:57;;;;;;;13.20;8.52;;;;;;;2.97;67.89;98983.44;4938379;29;20125;-80
2022/01/31 07:10:23;;;;;;;13.35;9.15;;;;;;;2.77;65.60;98979.22;4921373;28;20138;-80
2022/01/31 07:12:54;;;;;;;13.25;9.02;;;;;;;2.82;65.99;98984.22;4953821;29;20078;-83
2022/01/31 07:15:20;;;;;;;11.52;8.13;;;;;;;2.62;65.36;98983.53;4954300;29;20146;-80
2022/01/31 07:17:46;;;;;;;15.25;8.55;;;;;;;2.42;66.08;98984.59;4908033;29;20054;-83
2022/01/31 07:20:21;;;;;;;12.73;8.60;;;;;;;2.28;66.79;98983.59;4922623;29;20046;-83
2022/01/31 07:22:55;;;;;;;13.35;8.88;;;;;;;2.18;67.22;98991.13;4970354;28;20506;-83
2022/01/31 07:25:34;;;;;;;15.90;9.43;;;;;;;1.95;67.51;98992.28;4939477;29;20055;-81
2022/01/31 07:28:07;;;;;;;12.98;8.15;;;;;;;1.76;68.48;98999.41;4954223;28;20506;-80
2022/01/31 07:30:33;;;;;;;13.55;9.30;;;;;;;1.56;69.05;98995.13;4938275;28;20805;-91
2022/01/31 07:32:59;;;;;;;22.42;11.80;;;;;;;1.73;69.33;98996.94;4922341;29;20133;-79
2022/01/31 07:35:25;;;;;;;13.00;9.35;;;;;;;1.76;69.35;98995.00;4906721;29;20055;-82
2022/01/31 07:37:51;;;;;;;23.27;10.70;;;;;;;1.90;68.64;98999.59;4937858;29;20051;-80
2022/01/31 07:40:17;;;;;;;14.02;9.70;;;;;;;1.99;69.15;99004.38;4921428;29;20137;-81
2022/01/31 07:42:43;;;;;;;19.10;10.00;;;;;;;2.02;68.87;99009.50;4906132;29;20546;-80
2022/01/31 07:45:09;;;;;;;20.02;9.88;;;;;;;2.08;68.40;99006.56;4921722;29;20146;-80
2022/01/31 07:47:35;;;;;;;15.88;10.07;;;;;;;2.28;68.17;99010.81;4921490;29;20122;-80
2022/01/31 07:50:04;;;;;;;15.57;10.05;;;;;;;2.34;67.61;99010.50;4901727;29;20070;-81
2022/01/31 07:52:31;;;;;;;15.43;10.45;;;;;;;2.24;67.55;99014.53;4887111;29;20051;-81
2022/01/31 07:55:00;;;;;;;15.05;9.73;;;;;;;2.31;67.80;99017.72;4906637;29;20201;-80
2022/01/31 07:57:26;;;;;;;20.90;10.93;;;;;;;2.31;67.51;99017.72;4905539;29;20047;-81
2022/01/31 07:59:52;;;;;;;15.93;9.85;;;;;;;2.22;67.59;99015.53;4905061;28;20066;-78
2022/01/31 08:02:19;;;;;;;18.05;10.90;;;;;;;2.25;67.54;99015.41;4888357;28;20095;-82
2022/01/31 08:04:45;;;;;;;17.33;9.32;;;;;;;2.21;67.41;99011.22;4889405;29;20114;-79
2022/01/31 08:07:12;;;;;;;20.70;11.23;;;;;;;2.27;67.74;99013.53;4904870;29;20426;-78
2022/01/31 08:09:39;;;;;;;16.60;9.68;;;;;;;2.45;67.39;99012.59;4889480;29;20442;-82
2022/01/31 08:12:06;;;;;;;15.98;8.55;;;;;;;2.48;66.82;99006.28;4904771;29;20062;-83
2022/01/31 08:14:32;;;;;;;16.48;9.90;;;;;;;2.59;66.62;99015.34;4889162;28;20052;-80
2022/01/31 08:16:59;;;;;;;18.45;10.05;;;;;;;2.66;66.16;99016.72;4920211;29;20050;-80
2022/01/31 08:19:26;;;;;;;12.93;8.77;;;;;;;2.77;65.61;99013.53;4920444;29;20047;-83
2022/01/31 08:21:55;;;;;;;15.48;10.05;;;;;;;2.79;65.79;99013.44;4950901;28;20193;-80
2022/01/31 08:24:21;;;;;;;12.82;8.55;;;;;;;2.92;65.98;99004.78;4972080;28;20482;-83
2022/01/31 08:26:47;;;;;;;15.43;9.63;;;;;;;3.16;64.83;99017.59;4960715;28;20142;-82
2022/01/31 08:29:22;;;;;;;13.40;9.35;;;;;;;3.07;64.52;99011.00;4921545;29;20496;-82
2022/01/31 08:31:52;;;;;;;14.00;8.43;;;;;;;3.13;64.10;99017.75;4923267;29;20130;-82
2022/01/31 08:34:22;;;;;;;13.43;8.45;;;;;;;3.29;63.22;99023.03;4922832;29;20035;-82
2022/01/31 08:36:48;;;;;;;15.15;9.98;;;;;;;3.13;62.97;99021.25;4910434;29;20138;-82
2022/01/31 08:39:20;;;;;;;12.85;8.60;;;;;;;3.01;63.56;99032.50;4925761;29;20079;-83
2022/01/31 08:41:48;;;;;;;13.02;8.70;;;;;;;3.05;63.99;99028.75;4930786;28;20120;-82
2022/01/31 08:44:17;;;;;;;12.67;9.27;;;;;;;3.02;63.93;99026.25;4963206;28;20046;-81
2022/01/31 08:46:45;;;;;;;13.55;9.35;;;;;;;3.11;63.68;99028.38;4978734;28;20120;-81
2022/01/31 08:49:13;;;;;;;15.25;8.45;;;;;;;3.12;63.23;99030.13;4979149;28;20193;-83
2022/01/31 08:51:39;;;;;;;12.15;7.97;;;;;;;3.12;63.37;99024.84;4947382;28;20078;-80
2022/01/31 08:54:08;;;;;;;14.55;9.80;;;;;;;3.11;62.98;99033.66;4995647;28;20557;-81
2022/01/31 08:56:40;;;;;;;15.50;9.45;;;;;;;3.08;63.33;99036.47;4933655;28;20418;-80
2022/01/31 08:59:07;;;;;;;13.77;9.02;;;;;;;3.07;62.57;99042.69;4927913;29;20062;-82
2022/01/31 09:01:33;;;;;;;15.75;9.27;;;;;;;2.93;63.35;99045.22;4925682;29;20418;-82
2022/01/31 09:04:04;;;;;;;17.65;9.45;;;;;;;2.76;64.11;99037.38;4926252;29;20074;-76
2022/01/31 09:06:32;;;;;;;15.38;8.48;;;;;;;2.74;63.84;99040.06;4926101;29;20039;-81
2022/01/31 09:08:59;;;;;;;13.40;7.68;;;;;;;2.76;64.13;99058.47;4941633;29;20479;-80
2022/01/31 09:11:26;;;;;;;13.65;8.95;;;;;;;3.05;63.91;99054.28;4926058;29;20070;-84
2022/01/31 09:13:52;;;;;;;12.65;8.07;;;;;;;2.94;62.67;99041.66;4911872;29;20047;-83
2022/01/31 09:16:18;;;;;;;15.57;7.88;;;;;;;3.11;62.53;99054.78;4910465;29;20045;-83
2022/01/31 09:18:45;;;;;;;14.10;8.68;;;;;;;3.15;62.27;99047.56;4910366;29;20055;-83
2022/01/31 09:21:10;;;;;;;11.55;8.75;;;;;;;3.20;62.25;99056.09;4925354;29;20039;-84
2022/01/31 09:23:37;;;;;;;14.55;9.00;;;;;;;3.29;62.22;99052.94;4941526;29;20132;-83
2022/01/31 09:26:03;;;;;;;12.57;8.75;;;;;;;3.14;61.97;99057.28;4942312;29;20047;-83
2022/01/31 09:28:29;;;;;;;14.30;7.88;;;;;;;2.96;62.33;99050.34;4910688;29;20051;-84
2022/01/31 09:30:56;;;;;;;12.45;8.95;;;;;;;3.02;62.75;99071.16;4911216;29;20426;-82
2022/01/31 09:33:22;;;;;;;27.08;10.45;;;;;;;2.98;62.83;99059.03;4925605;29;20487;-82
2022/01/31 09:35:49;;;;;;;11.38;8.30;;;;;;;3.06;62.35;99064.75;4924864;29;20051;-83
2022/01/31 09:38:17;;;;;;;10.85;7.93;;;;;;;2.88;62.33;99063.09;4940562;29;20039;-84
2022/01/31 09:40:44;;;;;;;12.82;8.88;;;;;;;2.96;62.57;99065.34;4926013;29;20046;-85
2022/01/31 09:48:33;;;;;;;11.63;8.55;;;;;;;3.10;62.41;99063.66;4939986;29;20047;-84
2022/01/31 09:51:04;;;;;;;10.48;8.00;;;;;;;3.24;61.66;99055.00;4943606;29;20043;-83
2022/01/31 09:53:30;;;;;;;12.63;8.13;;;;;;;3.47;61.83;99064.31;4924668;29;20078;-84
2022/01/31 09:55:57;;;;;;;10.57;7.50;;;;;;;3.36;60.84;99064.03;4924379;29;20110;-84
2022/01/31 09:58:26;;;;;;;10.00;7.32;;;;;;;3.47;60.91;99061.66;4924176;29;20043;-83
2022/01/31 10:01:12;;;;;;;9.23;6.50;;;;;;;3.44;60.32;99066.25;4940121;29;20510;-85
2022/01/31 10:03:59;;;;;;;7.22;5.72;;;;;;;3.20;60.40;99073.72;4924933;29;20058;-84
2022/01/31 10:06:29;;;;;;;7.82;5.50;;;;;;;3.22;60.77;99071.84;4924925;29;20046;-85
2022/01/31 10:09:19;;;;;;;5.97;4.82;;;;;;;3.09;60.69;99071.69;4926120;29;20054;-83
2022/01/31 10:11:50;;;;;;;7.53;6.10;;;;;;;3.28;60.82;99071.53;4933469;29;20054;-85
2022/01/31 10:17:31;;;;;;;7.22;5.85;;;;;;;3.45;60.79;99058.22;4954120;29;20071;-89
2022/01/31 10:20:00;;;;;;;8.45;6.20;;;;;;;3.39;60.43;99064.72;4940424;29;20050;-87
2022/01/31 10:22:28;;;;;;;9.23;6.85;;;;;;;3.27;61.53;99064.53;4940012;29;20047;-86
2022/01/31 10:25:02;;;;;;;9.20;6.57;;;;;;;3.27;61.14;99080.38;4908474;29;20059;-86
2022/01/31 10:27:32;;;;;;;12.07;6.78;;;;;;;3.23;61.31;99078.84;4924285;29;20046;-91
2022/01/31 10:30:12;;;;;;;8.63;6.43;;;;;;;3.08;61.83;99081.38;4955551;29;20442;-81
2022/01/31 10:32:40;;;;;;;10.70;7.00;;;;;;;3.29;61.27;99086.44;4939635;29;20039;-81
2022/01/31 10:35:08;;;;;;;10.38;6.68;;;;;;;3.20;61.13;99079.88;4923914;29;20039;-82
2022/01/31 10:37:36;;;;;;;8.55;5.93;;;;;;;3.18;61.28;99089.66;4955413;28;20503;-81
2022/01/31 10:54:05;;;;;;;8.40;5.28;;;;;;;4.01;59.56;99112.34;4949426;28;20047;-80
2022/01/31 10:56:41;;;;;;;6.70;5.45;;;;;;;3.87;59.02;99088.47;4955035;28;20050;-81
2022/01/31 10:59:26;;;;;;;7.82;5.55;;;;;;;3.86;59.05;99105.28;4937764;29;20560;-80
2022/01/31 11:01:54;;;;;;;6.35;5.57;;;;;;;3.86;59.46;99107.94;4937454;29;20502;-83
2022/01/31 11:04:20;;;;;;;7.65;5.90;;;;;;;3.80;58.83;99111.78;4921822;29;20093;-81
2022/01/31 11:06:47;;;;;;;9.82;5.78;;;;;;;3.73;58.94;99115.72;4921933;29;20070;-78
2022/01/31 11:09:15;;;;;;;9.27;6.70;;;;;;;3.64;59.92;99116.22;4921890;29;20055;-80
2022/01/31 11:11:46;;;;;;;18.58;6.57;;;;;;;3.85;59.48;99116.81;4921468;29;20050;-83
2022/01/31 11:14:13;;;;;;;6.93;5.38;;;;;;;3.68;59.42;99135.41;4922456;29;20161;-79
2022/01/31 11:16:42;;;;;;;6.93;5.78;;;;;;;3.49;59.72;99109.97;4921608;29;20071;-79
2022/01/31 11:19:09;;;;;;;11.52;6.43;;;;;;;3.69;59.87;99129.19;4906238;29;20047;-78
2022/01/31 11:21:39;;;;;;;7.78;5.65;;;;;;;3.88;59.30;99125.44;4937912;29;20141;-81
2022/01/31 11:24:22;;;;;;;9.63;6.22;;;;;;;3.87;58.90;99122.84;4937408;29;20114;-79
2022/01/31 11:27:08;;;;;;;9.10;6.50;;;;;;;3.84;59.05;99123.91;4923613;29;20083;-80
2022/01/31 11:29:37;;;;;;;8.25;6.30;;;;;;;4.03;59.44;99128.16;4926344;29;20051;-79
2022/01/31 11:32:04;;;;;;;9.15;6.85;;;;;;;4.24;58.13;99131.34;4917559;29;20047;-79
2022/01/31 11:34:31;;;;;;;9.85;6.80;;;;;;;4.34;57.77;99129.88;4925415;29;20083;-80
2022/01/31 11:36:57;;;;;;;9.70;6.95;;;;;;;4.16;57.60;99136.22;4926025;29;20031;-79
2022/01/31 11:39:23;;;;;;;16.40;8.23;;;;;;;4.11;57.97;99141.78;4948236;29;20052;-79
2022/01/31 11:42:08;;;;;;;12.27;7.47;;;;;;;4.14;58.04;99152.22;4894102;29;20046;-79
2022/01/31 11:44:51;;;;;;;10.60;7.63;;;;;;;4.07;58.04;99143.75;4903625;29;20040;-78
2022/01/31 11:47:22;;;;;;;10.32;7.40;;;;;;;4.38;57.77;99155.22;4888604;29;20036;-79
2022/01/31 11:49:53;;;;;;;8.32;6.70;;;;;;;4.65;57.89;99165.16;4903747;29;20043;-80
2022/01/31 11:52:19;;;;;;;8.93;5.97;;;;;;;4.53;56.51;99164.94;4904395;29;20051;-79
2022/01/31 11:54:46;;;;;;;7.75;6.28;;;;;;;4.50;56.94;99165.09;4903450;29;20107;-78
2022/01/31 11:57:20;;;;;;;7.35;6.20;;;;;;;4.19;57.20;99170.47;4888313;29;20098;-79
2022/01/31 12:00:13;;;;;;;7.53;6.07;;;;;;;3.73;58.09;99179.16;4904252;29;20519;-80
2022/01/31 12:02:43;;;;;;;8.02;6.43;;;;;;;3.39;58.94;99167.75;4921939;29;20090;-80
2022/01/31 12:05:18;;;;;;;8.40;6.82;;;;;;;3.13;59.57;99173.56;4902646;29;20516;-79
2022/01/31 12:07:45;;;;;;;8.05;6.55;;;;;;;3.05;59.76;99179.25;4919646;29;20043;-79
2022/01/31 12:10:22;;;;;;;8.65;7.15;;;;;;;3.00;60.00;99181.25;4918011;29;20127;-79